Pagrindinis puslapis
METAR-TAF:

METAR-TAF

Oro uostai :

Rantoul National Aviation Center Airport (Frank Elliott Field)

Rantoul, Ilinojus, Jungtinės Amerikos Valstijos

platuma: 40-17-37N, ilguma: 088-08-33W, Aukštis: 225 m

Dabartinis oras

Ataskaita buvo paskelbta 21 minutes, ne 21:55 UTC
Vėjas 4 kt iš Pietų
Temperatūra 18°C
Drėgmė 59%
Slėgis 1012 hPa
Matomumas: 16.1 km
Išsisklaidę debesys ne aukštis 3600 ft

METAR: KTIP 202155Z AUTO 18004KT 10SM SCT036 18/10 A2989 RMK AO2 T01800102

Laikas: 17:16 (22:16 UTC)


TAF: trūkstamas

Orai ataskaitas ir orų prognozės (METAR, TAF).

turimą stotys yra geltonos ir raudonos taškus žemėlapyje.

Perkelti pele per norėdami pamatyti stoties vardą.

Tada spustelėkite, norėdami matyti oro stebėjimo ir prognozės.

Norėdami pakeisti žemėlapį: spustelėkite ant žalios mygtukų su juodo kryžiaus žemyn,; žalią mygtuką su brūkšneliu, jei norite nutolinti; arba žalių rodyklių gretimoms žemėlapius.


METAR-TAF: